createdAt,value
2023-03-21T00:02:57.692Z,11.09
2023-03-21T00:06:03.564Z,11.08
2023-03-21T00:09:10.215Z,11.05
2023-03-21T00:12:15.223Z,11.02
2023-03-21T00:15:20.553Z,11.02
2023-03-21T00:18:25.816Z,10.99
2023-03-21T00:21:46.629Z,11.00
2023-03-21T00:25:00.678Z,10.96
2023-03-21T00:28:08.594Z,10.93
2023-03-21T00:31:12.130Z,10.71
2023-03-21T00:34:14.942Z,10.90
2023-03-21T00:37:27.876Z,10.88
2023-03-21T00:40:40.422Z,10.86
2023-03-21T00:43:43.572Z,10.80
2023-03-21T00:47:00.871Z,10.75
2023-03-21T00:50:10.398Z,10.72
2023-03-21T00:53:16.903Z,10.69
2023-03-21T00:56:20.960Z,10.57
2023-03-21T00:59:23.638Z,10.66
2023-03-21T01:02:26.752Z,10.63
2023-03-21T01:05:45.928Z,10.62
2023-03-21T01:08:54.699Z,10.58
2023-03-21T01:11:58.844Z,10.57
2023-03-21T01:15:01.979Z,10.57
2023-03-21T01:18:05.055Z,10.55
2023-03-21T01:21:10.779Z,10.54
2023-03-21T01:24:13.435Z,10.51
2023-03-21T01:27:18.035Z,10.48
2023-03-21T01:30:24.000Z,10.44
2023-03-21T01:33:30.298Z,10.41
2023-03-21T01:36:33.272Z,10.36
2023-03-21T01:39:36.056Z,10.31
2023-03-21T01:42:40.261Z,10.26
2023-03-21T01:46:27.313Z,10.19
2023-03-21T01:49:36.165Z,10.20
2023-03-21T01:52:41.609Z,10.15
2023-03-21T01:55:44.638Z,10.11
2023-03-21T01:58:50.536Z,10.07
2023-03-21T02:01:53.437Z,10.04
2023-03-21T02:05:04.509Z,10.02
2023-03-21T02:08:10.465Z,9.98
2023-03-21T02:11:13.307Z,9.97
2023-03-21T02:14:28.387Z,9.90
2023-03-21T02:17:37.580Z,9.81
2023-03-21T02:21:19.901Z,9.85
2023-03-21T02:25:01.488Z,9.82
2023-03-21T02:28:12.765Z,9.81
2023-03-21T02:31:37.434Z,9.73
2023-03-21T02:35:04.052Z,9.68
2023-03-21T02:38:11.860Z,9.65
2023-03-21T02:41:25.389Z,9.60
2023-03-21T02:44:43.542Z,9.53
2023-03-21T02:47:49.917Z,9.46
2023-03-21T02:50:55.151Z,9.39
2023-03-21T02:54:28.174Z,9.33
2023-03-21T02:57:33.770Z,9.26
2023-03-21T03:00:46.081Z,9.23
2023-03-21T03:03:51.891Z,9.20
2023-03-21T03:07:16.292Z,9.14
2023-03-21T03:10:33.721Z,9.09
2023-03-21T03:13:53.829Z,9.02
2023-03-21T03:17:05.120Z,8.93
2023-03-21T03:23:44.391Z,8.73
2023-03-21T03:26:52.453Z,8.67
2023-03-21T03:29:58.831Z,8.59
2023-03-21T03:33:03.261Z,8.58
2023-03-21T03:36:10.974Z,8.53
2023-03-21T03:39:17.236Z,8.45
2023-03-21T03:42:28.677Z,8.43
2023-03-21T03:45:36.047Z,8.43
2023-03-21T03:48:46.753Z,8.41
2023-03-21T03:51:56.552Z,8.24
2023-03-21T03:54:59.984Z,8.10
2023-03-21T03:58:06.418Z,7.80
2023-03-21T04:01:14.220Z,7.93
2023-03-21T04:04:17.705Z,7.88
2023-03-21T04:07:21.812Z,7.85
2023-03-21T04:10:24.924Z,7.79
2023-03-21T04:13:29.153Z,7.77
2023-03-21T04:16:35.554Z,7.66
2023-03-21T04:19:41.058Z,7.57
2023-03-21T04:22:43.947Z,7.49
2023-03-21T04:25:57.085Z,7.46
2023-03-21T04:29:02.199Z,7.44
2023-03-21T04:32:06.267Z,7.45
2023-03-21T04:35:10.731Z,7.48
2023-03-21T04:38:13.682Z,7.51
2023-03-21T04:41:16.392Z,7.50
2023-03-21T04:44:20.921Z,7.56
2023-03-21T04:47:24.062Z,7.51
2023-03-21T04:50:26.717Z,7.49
2023-03-21T04:53:29.429Z,7.42
2023-03-21T04:56:33.980Z,7.35
2023-03-21T04:59:41.388Z,7.30
2023-03-21T05:02:44.051Z,7.25
2023-03-21T05:05:48.339Z,7.20
2023-03-21T05:08:50.978Z,7.16
2023-03-21T05:11:53.736Z,7.17
2023-03-21T05:14:57.709Z,7.12
2023-03-21T05:18:11.549Z,7.09
2023-03-21T05:21:18.108Z,7.08
2023-03-21T05:24:25.265Z,7.03
2023-03-21T05:27:36.982Z,6.98
2023-03-21T05:30:41.506Z,6.99
2023-03-21T05:33:48.234Z,6.98
2023-03-21T05:36:51.004Z,6.99
2023-03-21T05:39:54.094Z,7.01
2023-03-21T05:42:56.893Z,7.01
2023-03-21T05:46:01.063Z,7.03
2023-03-21T05:49:03.697Z,7.01
2023-03-21T05:52:06.929Z,6.96
2023-03-21T05:55:24.846Z,6.94
2023-03-21T05:58:27.860Z,6.96
2023-03-21T06:01:37.445Z,6.96
2023-03-21T06:04:40.343Z,7.06
2023-03-21T06:07:47.394Z,6.83
2023-03-21T06:10:50.068Z,6.99
2023-03-21T06:13:52.973Z,7.07
2023-03-21T06:16:57.035Z,7.06
2023-03-21T06:20:01.118Z,7.11
2023-03-21T06:23:03.827Z,7.23
2023-03-21T06:26:07.059Z,7.51
2023-03-21T06:29:09.738Z,8.25
2023-03-21T06:32:14.372Z,9.10
2023-03-21T06:35:17.046Z,9.66
2023-03-21T06:38:19.842Z,9.60
2023-03-21T06:41:22.564Z,9.39
2023-03-21T06:44:25.659Z,9.26
2023-03-21T06:47:32.818Z,9.17
2023-03-21T06:50:35.925Z,9.11
2023-03-21T06:53:39.034Z,9.07
2023-03-21T06:56:42.216Z,9.12
2023-03-21T06:59:44.936Z,9.17
2023-03-21T07:02:51.148Z,8.97
2023-03-21T07:05:54.009Z,9.23
2023-03-21T07:08:57.010Z,9.27
2023-03-21T07:11:59.655Z,9.27
2023-03-21T07:15:03.028Z,9.22
2023-03-21T07:18:08.086Z,9.19
2023-03-21T07:21:11.333Z,9.17
2023-03-21T07:24:14.066Z,9.21
2023-03-21T07:27:17.520Z,9.25
2023-03-21T07:30:20.563Z,9.27
2023-03-21T07:33:26.038Z,9.32
2023-03-21T07:36:28.804Z,9.38
2023-03-21T07:39:34.541Z,9.40
2023-03-21T07:42:37.342Z,9.47
2023-03-21T07:45:40.865Z,9.52
2023-03-21T07:48:45.131Z,9.46
2023-03-21T07:51:47.977Z,9.34
2023-03-21T07:54:50.647Z,9.51
2023-03-21T07:57:53.999Z,9.62
2023-03-21T08:00:57.285Z,9.69
2023-03-21T08:04:01.653Z,9.68
2023-03-21T08:07:04.391Z,9.80
2023-03-21T08:10:08.270Z,9.91
2023-03-21T08:13:11.076Z,10.03
2023-03-21T08:16:13.856Z,10.20
2023-03-21T08:19:18.859Z,10.24
2023-03-21T08:22:21.690Z,10.41
2023-03-21T08:25:24.536Z,10.43
2023-03-21T08:28:33.370Z,10.60
2023-03-21T08:31:36.285Z,10.76
2023-03-21T08:34:42.864Z,10.91
2023-03-21T08:37:45.808Z,11.05
2023-03-21T08:40:48.464Z,11.22
2023-03-21T08:43:51.416Z,11.43
2023-03-21T08:46:54.306Z,11.69
2023-03-21T08:49:59.273Z,11.98
2023-03-21T08:53:02.000Z,12.32
2023-03-21T08:56:04.858Z,12.65
2023-03-21T08:59:10.057Z,12.92
2023-03-21T09:02:15.744Z,13.20
2023-03-21T09:05:20.399Z,13.53
2023-03-21T09:08:24.018Z,13.98
2023-03-21T09:11:26.808Z,14.33
2023-03-21T09:14:29.615Z,14.63
2023-03-21T09:17:33.132Z,14.88
2023-03-21T09:20:38.357Z,15.21
2023-03-21T09:23:41.503Z,15.43
2023-03-21T09:26:44.629Z,15.57
2023-03-21T09:29:48.375Z,15.65
2023-03-21T09:32:52.584Z,15.73
2023-03-21T09:35:57.876Z,15.73
2023-03-21T09:39:00.795Z,16.00
2023-03-21T09:42:19.865Z,16.13
2023-03-21T09:45:30.962Z,16.30
2023-03-21T09:48:50.564Z,16.43
2023-03-21T09:52:05.417Z,16.64
2023-03-21T09:55:20.064Z,16.81
2023-03-21T09:58:28.080Z,17.01
2023-03-21T10:01:34.548Z,17.15
2023-03-21T10:04:37.608Z,17.38
2023-03-21T10:07:47.788Z,17.69
2023-03-21T10:10:52.930Z,17.86
2023-03-21T10:14:00.472Z,18.02
2023-03-21T10:17:10.425Z,18.08
2023-03-21T10:20:17.499Z,17.98
2023-03-21T10:23:26.650Z,17.87
2023-03-21T10:26:31.008Z,17.73
2023-03-21T10:29:42.224Z,17.75
2023-03-21T10:32:45.038Z,17.81
2023-03-21T10:35:52.317Z,17.76
2023-03-21T10:39:01.702Z,17.77
2023-03-21T10:42:04.893Z,17.71
2023-03-21T10:45:16.492Z,17.67
2023-03-21T10:48:20.220Z,17.74
2023-03-21T10:51:28.140Z,17.71
2023-03-21T10:54:33.752Z,17.67
2023-03-21T10:57:38.044Z,17.64
2023-03-21T11:00:43.372Z,17.57
2023-03-21T11:03:48.260Z,17.54
2023-03-21T11:06:54.901Z,17.59
2023-03-21T11:10:00.476Z,17.66
2023-03-21T11:13:08.955Z,17.71
2023-03-21T11:16:13.681Z,17.78
2023-03-21T11:19:18.716Z,17.89
2023-03-21T11:22:23.652Z,17.97
2023-03-21T11:25:36.285Z,18.05
2023-03-21T11:28:41.557Z,18.12
2023-03-21T11:31:44.892Z,17.92
2023-03-21T11:34:49.605Z,18.01
2023-03-21T11:37:54.475Z,18.16
2023-03-21T11:41:02.094Z,18.33
2023-03-21T11:44:06.382Z,18.36
2023-03-21T11:47:11.463Z,18.36
2023-03-21T11:50:28.081Z,18.39
2023-03-21T11:53:39.625Z,18.05
2023-03-21T11:56:50.109Z,17.91
2023-03-21T12:00:02.169Z,17.96
2023-03-21T12:03:23.820Z,17.95
2023-03-21T12:06:31.274Z,17.86
2023-03-21T12:09:43.738Z,17.87
2023-03-21T12:12:56.492Z,18.03
2023-03-21T12:16:08.888Z,17.69
2023-03-21T12:19:43.057Z,17.68
2023-03-21T12:22:58.031Z,17.54
2023-03-21T12:26:11.345Z,17.62
2023-03-21T12:29:27.444Z,17.58
2023-03-21T12:32:45.452Z,17.63
2023-03-21T12:36:03.939Z,17.45
2023-03-21T12:39:21.069Z,17.72
2023-03-21T12:42:46.388Z,17.49
2023-03-21T12:45:54.795Z,17.20
2023-03-21T12:49:02.620Z,17.17
2023-03-21T12:52:09.972Z,16.94
2023-03-21T12:55:19.503Z,16.85
2023-03-21T12:58:28.307Z,16.67
2023-03-21T13:01:36.435Z,17.06
2023-03-21T13:04:46.825Z,16.99
2023-03-21T13:07:53.563Z,16.96
2023-03-21T13:10:59.519Z,17.17
2023-03-21T13:14:07.111Z,17.06
2023-03-21T13:17:20.512Z,16.89
2023-03-21T13:20:28.267Z,16.48
2023-03-21T13:23:36.799Z,16.22
2023-03-21T13:26:41.745Z,16.03
2023-03-21T13:29:49.786Z,15.91
2023-03-21T13:33:05.637Z,16.06
2023-03-21T13:36:10.080Z,16.05
2023-03-21T13:39:19.360Z,15.95
2023-03-21T13:42:31.756Z,16.05
2023-03-21T13:45:46.244Z,16.08
2023-03-21T13:49:02.191Z,16.32
2023-03-21T13:52:28.021Z,16.35
2023-03-21T13:55:36.692Z,16.43
2023-03-21T13:58:41.049Z,16.44
2023-03-21T14:01:59.957Z,16.46
2023-03-21T14:05:18.617Z,16.33
2023-03-21T14:08:36.494Z,16.38
2023-03-21T14:11:44.461Z,16.37
2023-03-21T14:14:54.103Z,16.41
2023-03-21T14:17:59.982Z,16.33
2023-03-21T14:21:07.104Z,16.24
2023-03-21T14:24:14.461Z,16.14
2023-03-21T14:27:17.655Z,16.00
2023-03-21T14:30:25.528Z,15.95
2023-03-21T14:33:32.391Z,15.82
2023-03-21T14:36:45.772Z,15.54
2023-03-21T14:40:00.393Z,15.15
2023-03-21T14:43:06.822Z,14.79
2023-03-21T14:46:14.386Z,14.76
2023-03-21T14:49:23.389Z,14.63
2023-03-21T14:52:31.217Z,14.63
2023-03-21T14:55:34.736Z,14.62
2023-03-21T14:58:40.288Z,14.58
2023-03-21T15:01:45.733Z,14.48
2023-03-21T15:04:51.563Z,14.36
2023-03-21T15:07:58.190Z,14.30
2023-03-21T15:11:07.511Z,14.20
2023-03-21T15:14:15.768Z,14.08
2023-03-21T15:17:19.027Z,14.02
2023-03-21T15:20:23.621Z,13.90
2023-03-21T15:23:31.473Z,13.63
2023-03-21T15:26:34.274Z,13.38
2023-03-21T15:29:37.842Z,13.15
2023-03-21T15:32:40.960Z,13.01
2023-03-21T15:35:47.029Z,13.04
2023-03-21T15:38:51.838Z,12.99
2023-03-21T15:41:59.965Z,12.90
2023-03-21T15:45:20.700Z,12.88
2023-03-21T15:48:27.079Z,12.82
2023-03-21T15:51:29.808Z,12.72
2023-03-21T15:54:37.083Z,12.76
2023-03-21T15:57:47.444Z,12.72
2023-03-21T16:00:55.120Z,12.63
2023-03-21T16:04:01.947Z,12.58
2023-03-21T16:07:15.565Z,12.39
2023-03-21T16:10:29.557Z,12.50
2023-03-21T16:13:32.216Z,12.58
2023-03-21T16:16:35.037Z,12.44
2023-03-21T16:19:37.943Z,12.30
2023-03-21T16:22:40.688Z,12.23
2023-03-21T16:25:45.800Z,12.13
2023-03-21T16:28:49.189Z,12.29
2023-03-21T16:31:51.843Z,12.42
2023-03-21T16:34:54.641Z,12.45
2023-03-21T16:37:57.369Z,12.45
2023-03-21T16:41:04.290Z,12.40
2023-03-21T16:44:07.288Z,12.36
2023-03-21T16:47:15.662Z,12.31
2023-03-21T16:50:26.768Z,12.32
2023-03-21T16:53:29.460Z,12.25
2023-03-21T16:56:39.725Z,12.21
2023-03-21T16:59:42.879Z,12.21
2023-03-21T17:02:48.722Z,12.19
2023-03-21T17:05:54.341Z,12.24
2023-03-21T17:08:58.549Z,12.13
2023-03-21T17:12:03.139Z,12.14
2023-03-21T17:15:06.782Z,12.13
2023-03-21T17:18:11.357Z,12.19
2023-03-21T17:21:15.932Z,12.16
2023-03-21T17:24:21.466Z,12.07
2023-03-21T17:27:25.870Z,12.03
2023-03-21T17:30:31.362Z,11.99
2023-03-21T17:33:35.464Z,11.95
2023-03-21T17:36:39.864Z,11.90
2023-03-21T17:39:43.005Z,11.84
2023-03-21T17:42:47.428Z,11.84
2023-03-21T17:45:51.011Z,11.85
2023-03-21T17:48:54.308Z,11.80
2023-03-21T17:51:56.998Z,11.94
2023-03-21T17:55:06.996Z,11.90
2023-03-21T17:58:12.926Z,11.91
2023-03-21T18:01:18.089Z,11.80
2023-03-21T18:04:21.009Z,11.81
2023-03-21T18:07:54.508Z,11.78
2023-03-21T18:10:50.767Z,11.69
2023-03-21T18:14:10.254Z,11.48
2023-03-21T18:17:19.301Z,11.48
2023-03-21T18:20:50.322Z,11.61
2023-03-21T18:23:52.470Z,11.59
2023-03-21T18:26:55.151Z,11.57
2023-03-21T18:30:31.897Z,11.51
2023-03-21T18:33:34.926Z,11.50
2023-03-21T18:36:38.081Z,11.46
2023-03-21T18:39:45.679Z,11.48
2023-03-21T18:43:41.451Z,11.55
2023-03-21T18:46:16.403Z,11.50
2023-03-21T18:52:42.129Z,11.39
2023-03-21T18:55:47.638Z,11.46
2023-03-21T18:58:51.040Z,11.31
2023-03-21T19:01:55.219Z,11.27
2023-03-21T19:04:58.780Z,11.18
2023-03-21T19:08:04.497Z,11.21
2023-03-21T19:11:08.692Z,11.13
2023-03-21T19:14:12.240Z,10.84
2023-03-21T19:18:11.343Z,10.63
2023-03-21T19:20:40.115Z,10.51
2023-03-21T19:24:20.736Z,10.48
2023-03-21T19:27:05.929Z,10.43
2023-03-21T19:30:15.064Z,10.37
2023-03-21T19:33:21.073Z,10.34
2023-03-21T19:36:23.892Z,10.34
2023-03-21T19:39:27.393Z,10.44
2023-03-21T19:42:30.967Z,10.45
2023-03-21T19:45:34.125Z,10.52
2023-03-21T19:48:43.511Z,10.30
2023-03-21T19:51:46.753Z,10.22
2023-03-21T19:54:49.673Z,10.18
2023-03-21T19:57:53.661Z,10.20
2023-03-21T20:00:56.390Z,10.17
2023-03-21T20:04:00.793Z,10.18
2023-03-21T20:07:03.445Z,10.09
2023-03-21T20:10:08.964Z,9.91
2023-03-21T20:13:11.671Z,9.86
2023-03-21T20:16:14.552Z,9.78
2023-03-21T20:19:20.216Z,9.53
2023-03-21T20:22:35.995Z,9.63
2023-03-21T20:25:47.379Z,9.69
2023-03-21T20:29:27.913Z,9.78
2023-03-21T20:32:19.988Z,9.76
2023-03-21T20:35:52.109Z,9.73
2023-03-21T20:38:47.133Z,9.69
2023-03-21T20:41:49.851Z,9.69
2023-03-21T20:44:59.091Z,9.73
2023-03-21T20:48:04.023Z,9.51
2023-03-21T20:52:07.501Z,9.45
2023-03-21T20:54:34.818Z,9.22
2023-03-21T20:57:40.742Z,9.18
2023-03-21T21:00:44.845Z,9.18
2023-03-21T21:03:49.839Z,9.31
2023-03-21T21:06:53.884Z,9.45
2023-03-21T21:09:57.198Z,9.48
2023-03-21T21:12:59.873Z,9.55
2023-03-21T21:16:02.808Z,9.42
2023-03-21T21:19:11.157Z,9.51
2023-03-21T21:22:15.405Z,9.57
2023-03-21T21:25:18.869Z,9.59
2023-03-21T21:28:23.174Z,9.57
2023-03-21T21:31:27.193Z,9.52
2023-03-21T21:34:30.382Z,9.41
2023-03-21T21:37:37.542Z,9.33
2023-03-21T21:40:42.970Z,9.28
2023-03-21T21:43:45.936Z,9.11
2023-03-21T21:46:57.449Z,9.05
2023-03-21T21:50:03.302Z,8.99
2023-03-21T21:53:12.170Z,9.00
2023-03-21T21:56:15.227Z,9.07
2023-03-21T21:59:17.888Z,9.05
2023-03-21T22:02:23.709Z,8.96
2023-03-21T22:05:27.027Z,8.95
2023-03-21T22:08:31.104Z,8.97
2023-03-21T22:11:33.841Z,9.00
2023-03-21T22:14:40.916Z,9.07
2023-03-21T22:17:43.621Z,9.19
2023-03-21T22:20:46.643Z,9.10
2023-03-21T22:23:50.701Z,9.09
2023-03-21T22:26:57.834Z,9.07
2023-03-21T22:30:04.454Z,9.10
2023-03-21T22:33:09.959Z,9.13
2023-03-21T22:36:13.263Z,9.11
2023-03-21T22:39:17.766Z,9.06
2023-03-21T22:42:20.644Z,9.02
2023-03-21T22:45:23.398Z,8.92
2023-03-21T22:48:34.786Z,8.91
2023-03-21T22:51:37.455Z,8.94
2023-03-21T22:54:41.588Z,8.98
2023-03-21T22:57:44.270Z,9.01
2023-03-21T23:00:47.284Z,8.92
2023-03-21T23:03:50.004Z,8.76
2023-03-21T23:06:52.870Z,8.70
2023-03-21T23:09:57.682Z,8.49
2023-03-21T23:13:00.404Z,8.52
2023-03-21T23:16:06.826Z,8.41
2023-03-21T23:19:10.449Z,8.26
2023-03-21T23:22:13.139Z,8.15
2023-03-21T23:25:20.363Z,8.24
2023-03-21T23:28:23.170Z,8.34
2023-03-21T23:31:27.885Z,8.38
2023-03-21T23:34:31.585Z,8.36
2023-03-21T23:37:34.336Z,8.33
2023-03-21T23:40:41.189Z,8.29
2023-03-21T23:43:44.472Z,8.35
2023-03-21T23:46:53.348Z,8.35
2023-03-21T23:49:56.014Z,8.35
2023-03-21T23:53:05.986Z,8.26
2023-03-21T23:56:14.342Z,8.20
2023-03-21T23:59:17.033Z,8.19
